createdAt,value
2022-10-23T00:01:02.324Z,59.20
2022-10-23T00:03:30.249Z,58.80
2022-10-23T00:05:59.579Z,58.80
2022-10-23T00:08:30.086Z,58.60
2022-10-23T00:10:58.195Z,58.30
2022-10-23T00:13:26.208Z,57.90
2022-10-23T00:15:54.169Z,57.30
2022-10-23T00:18:22.071Z,56.60
2022-10-23T00:20:50.000Z,56.10
2022-10-23T00:23:19.313Z,55.60
2022-10-23T00:25:47.234Z,56.00
2022-10-23T00:28:15.443Z,55.40
2022-10-23T00:30:43.523Z,55.50
2022-10-23T00:33:11.721Z,55.60
2022-10-23T00:35:40.487Z,55.60
2022-10-23T00:38:08.528Z,55.80
2022-10-23T00:40:39.698Z,56.10
2022-10-23T00:43:14.106Z,56.00
2022-10-23T00:45:42.119Z,55.90
2022-10-23T00:48:10.056Z,55.80
2022-10-23T00:50:38.226Z,55.70
2022-10-23T00:53:07.301Z,56.10
2022-10-23T00:55:38.699Z,57.00
2022-10-23T00:58:07.198Z,56.50
2022-10-23T01:00:45.029Z,55.60
2022-10-23T01:03:13.603Z,55.10
2022-10-23T01:05:49.191Z,55.90
2022-10-23T01:08:23.849Z,56.50
2022-10-23T01:11:01.364Z,56.50
2022-10-23T01:13:40.414Z,57.00
2022-10-23T01:16:14.876Z,56.50
2022-10-23T01:18:46.444Z,56.10
2022-10-23T01:21:21.300Z,55.90
2022-10-23T01:24:04.608Z,54.60
2022-10-23T01:26:46.930Z,54.40
2022-10-23T01:29:21.811Z,54.20
2022-10-23T01:31:54.117Z,53.90
2022-10-23T01:34:28.747Z,53.50
2022-10-23T01:36:58.134Z,53.80
2022-10-23T01:39:33.558Z,54.00
2022-10-23T01:42:07.804Z,53.30
2022-10-23T01:44:42.469Z,52.90
2022-10-23T01:47:13.303Z,52.30
2022-10-23T01:49:56.665Z,51.60
2022-10-23T01:52:25.860Z,51.70
2022-10-23T01:54:59.904Z,51.70
2022-10-23T01:57:32.264Z,51.80
2022-10-23T02:00:07.225Z,51.30
2022-10-23T02:02:53.390Z,51.20
2022-10-23T02:05:27.143Z,51.00
2022-10-23T02:07:57.253Z,51.10
2022-10-23T02:10:33.394Z,51.10
2022-10-23T02:13:07.150Z,51.40
2022-10-23T02:15:40.612Z,52.30
2022-10-23T02:18:11.797Z,52.70
2022-10-23T02:23:22.301Z,54.30
2022-10-23T02:25:55.244Z,54.40
2022-10-23T02:28:27.510Z,54.20
2022-10-23T02:31:04.141Z,54.40
2022-10-23T02:33:34.463Z,53.70
2022-10-23T02:36:02.865Z,53.50
2022-10-23T02:38:34.321Z,53.10
2022-10-23T02:41:12.616Z,53.30
2022-10-23T02:43:48.359Z,52.70
2022-10-23T02:46:24.792Z,52.90
2022-10-23T02:48:59.545Z,52.20
2022-10-23T02:51:37.817Z,51.80
2022-10-23T02:54:10.451Z,51.10
2022-10-23T02:56:45.183Z,51.20
2022-10-23T02:59:21.976Z,51.60
2022-10-23T03:01:54.333Z,52.20
2022-10-23T03:04:26.713Z,52.20
2022-10-23T03:06:55.364Z,52.10
2022-10-23T03:09:23.968Z,52.40
2022-10-23T03:11:51.901Z,52.20
2022-10-23T03:14:19.991Z,51.60
2022-10-23T03:16:47.912Z,51.40
2022-10-23T03:19:17.224Z,51.50
2022-10-23T03:21:45.183Z,52.50
2022-10-23T03:24:13.619Z,52.20
2022-10-23T03:26:44.266Z,52.50
2022-10-23T03:29:12.196Z,51.80
2022-10-23T03:31:46.265Z,52.70
2022-10-23T03:34:15.064Z,52.90
2022-10-23T03:36:44.781Z,53.20
2022-10-23T03:39:12.727Z,53.50
2022-10-23T03:41:40.815Z,53.10
2022-10-23T03:44:09.158Z,52.70
2022-10-23T03:46:37.100Z,52.70
2022-10-23T03:49:05.721Z,52.50
2022-10-23T03:51:33.700Z,52.80
2022-10-23T03:54:03.288Z,52.60
2022-10-23T03:56:31.942Z,53.30
2022-10-23T03:59:01.264Z,53.00
2022-10-23T04:01:29.452Z,52.20
2022-10-23T04:03:57.465Z,51.40
2022-10-23T04:06:27.093Z,50.90
2022-10-23T04:08:57.807Z,50.50
2022-10-23T04:11:27.258Z,50.10
2022-10-23T04:13:55.223Z,49.80
2022-10-23T04:16:24.372Z,49.30
2022-10-23T04:18:52.975Z,49.40
2022-10-23T04:21:20.976Z,49.10
2022-10-23T04:23:48.993Z,48.60
2022-10-23T04:26:19.117Z,48.50
2022-10-23T04:28:48.423Z,49.40
2022-10-23T04:31:17.121Z,49.50
2022-10-23T04:33:45.112Z,49.40
2022-10-23T04:36:26.866Z,49.20
2022-10-23T04:38:54.792Z,49.20
2022-10-23T04:41:22.793Z,48.90
2022-10-23T04:43:52.121Z,48.70
2022-10-23T04:46:20.123Z,48.70
2022-10-23T04:48:49.582Z,48.70
2022-10-23T04:51:28.821Z,49.10
2022-10-23T04:54:19.671Z,49.70
2022-10-23T04:56:58.111Z,49.50
2022-10-23T04:59:29.354Z,50.00
2022-10-23T05:01:58.609Z,50.00
2022-10-23T05:04:26.774Z,50.60
2022-10-23T05:07:14.707Z,50.40
2022-10-23T05:10:01.501Z,49.90
2022-10-23T05:12:40.485Z,49.40
2022-10-23T05:15:11.032Z,49.10
2022-10-23T05:17:42.360Z,48.80
2022-10-23T05:20:14.691Z,48.60
2022-10-23T05:22:45.286Z,48.40
2022-10-23T05:25:14.077Z,48.30
2022-10-23T05:27:48.340Z,48.20
2022-10-23T05:30:18.861Z,48.10
2022-10-23T05:32:47.020Z,48.30
2022-10-23T05:35:19.876Z,48.20
2022-10-23T05:37:51.808Z,47.90
2022-10-23T05:40:23.858Z,48.40
2022-10-23T05:42:57.099Z,49.40
2022-10-23T05:45:52.719Z,49.80
2022-10-23T05:48:43.612Z,49.30
2022-10-23T05:51:27.926Z,49.10
2022-10-23T05:54:02.722Z,49.00
2022-10-23T05:56:35.084Z,48.80
2022-10-23T05:59:10.045Z,48.90
2022-10-23T06:01:52.191Z,49.50
2022-10-23T06:04:31.275Z,49.70
2022-10-23T06:07:23.605Z,50.70
2022-10-23T06:09:52.900Z,51.10
2022-10-23T06:12:20.892Z,51.80
2022-10-23T06:14:51.848Z,52.90
2022-10-23T06:17:23.728Z,53.50
2022-10-23T06:19:51.756Z,53.90
2022-10-23T06:25:02.757Z,53.80
2022-10-23T06:27:31.287Z,52.80
2022-10-23T06:29:59.296Z,52.20
2022-10-23T06:32:31.958Z,51.80
2022-10-23T06:35:12.062Z,52.40
2022-10-23T06:37:42.676Z,52.30
2022-10-23T06:40:15.298Z,52.60
2022-10-23T06:43:12.649Z,52.00
2022-10-23T06:46:02.073Z,52.00
2022-10-23T06:48:49.828Z,51.60
2022-10-23T06:51:29.469Z,51.50
2022-10-23T06:53:58.379Z,51.50
2022-10-23T06:56:44.946Z,51.40
2022-10-23T06:59:14.201Z,50.70
2022-10-23T07:01:42.346Z,50.70
2022-10-23T07:04:14.453Z,51.50
2022-10-23T07:06:44.168Z,52.20
2022-10-23T07:09:12.101Z,52.60
2022-10-23T07:11:55.343Z,52.90
2022-10-23T07:14:32.124Z,53.50
2022-10-23T07:17:01.846Z,54.10
2022-10-23T07:19:32.069Z,53.80
2022-10-23T07:22:05.539Z,54.00
2022-10-23T07:24:49.524Z,54.20
2022-10-23T07:27:37.728Z,54.60
2022-10-23T07:30:07.568Z,54.50
2022-10-23T07:32:43.385Z,54.50
2022-10-23T07:35:34.265Z,54.10
2022-10-23T07:38:08.502Z,53.90
2022-10-23T07:40:41.204Z,54.90
2022-10-23T07:43:11.529Z,54.20
2022-10-23T07:45:39.595Z,53.70
2022-10-23T07:48:16.864Z,53.70
2022-10-23T07:51:02.962Z,53.40
2022-10-23T07:53:32.116Z,53.40
2022-10-23T07:56:15.238Z,53.40
2022-10-23T07:59:06.032Z,53.70
2022-10-23T08:01:37.816Z,53.70
2022-10-23T08:04:06.719Z,53.50
2022-10-23T08:06:41.650Z,53.50
2022-10-23T08:09:09.711Z,53.10
2022-10-23T08:11:41.032Z,52.80
2022-10-23T08:14:11.061Z,52.60
2022-10-23T08:16:41.490Z,52.50
2022-10-23T08:19:18.420Z,53.30
2022-10-23T08:21:49.450Z,53.40
2022-10-23T08:24:17.985Z,53.60
2022-10-23T08:26:50.244Z,54.20
2022-10-23T08:29:20.874Z,54.60
2022-10-23T08:31:50.606Z,55.50
2022-10-23T08:34:47.788Z,56.10
2022-10-23T08:37:17.223Z,56.10
2022-10-23T08:39:47.257Z,56.30
2022-10-23T08:42:22.920Z,56.40
2022-10-23T08:44:58.223Z,56.60
2022-10-23T08:47:32.523Z,55.40
2022-10-23T08:53:07.878Z,55.50
2022-10-23T08:55:39.520Z,55.50
2022-10-23T08:58:15.443Z,54.70
2022-10-23T09:00:43.940Z,55.00
2022-10-23T09:03:14.067Z,54.10
2022-10-23T09:05:55.132Z,54.20
2022-10-23T09:08:35.704Z,53.80
2022-10-23T09:11:07.667Z,54.40
2022-10-23T09:13:51.171Z,54.10
2022-10-23T09:16:29.760Z,52.80
2022-10-23T09:18:59.326Z,52.10
2022-10-23T09:21:28.597Z,52.30
2022-10-23T09:23:58.031Z,52.50
2022-10-23T09:26:26.084Z,52.50
2022-10-23T09:29:03.173Z,52.70
2022-10-23T09:31:31.208Z,51.80
2022-10-23T09:34:00.883Z,51.60
2022-10-23T09:36:30.610Z,52.40
2022-10-23T09:39:01.993Z,52.50
2022-10-23T09:41:33.373Z,52.80
2022-10-23T09:44:16.557Z,52.40
2022-10-23T09:49:24.516Z,52.10
2022-10-23T09:51:59.650Z,51.60
2022-10-23T09:54:32.041Z,52.10
2022-10-23T09:57:04.532Z,51.70
2022-10-23T09:59:33.604Z,51.60
2022-10-23T10:02:05.015Z,51.40
2022-10-23T10:04:54.759Z,52.20
2022-10-23T10:07:24.812Z,52.30
2022-10-23T10:09:56.313Z,51.80
2022-10-23T10:12:37.570Z,51.50
2022-10-23T10:15:15.997Z,51.70
2022-10-23T10:17:51.601Z,52.00
2022-10-23T10:20:33.810Z,52.60
2022-10-23T10:23:06.919Z,52.80
2022-10-23T10:25:41.196Z,52.50
2022-10-23T10:28:23.544Z,52.60
2022-10-23T10:31:02.148Z,52.80
2022-10-23T10:33:42.588Z,52.40
2022-10-23T10:36:32.651Z,52.40
2022-10-23T10:39:03.250Z,52.10
2022-10-23T10:41:42.630Z,51.80
2022-10-23T10:44:34.055Z,51.10
2022-10-23T10:47:10.907Z,51.10
2022-10-23T10:49:43.791Z,50.60
2022-10-23T10:52:34.275Z,51.40
2022-10-23T10:55:12.950Z,52.30
2022-10-23T10:57:45.250Z,51.90
2022-10-23T11:00:17.943Z,51.70
2022-10-23T11:02:48.753Z,51.60
2022-10-23T11:05:26.294Z,51.30
2022-10-23T11:07:58.995Z,51.40
2022-10-23T11:10:28.937Z,50.90
2022-10-23T11:12:58.539Z,50.90
2022-10-23T11:15:34.963Z,51.00
2022-10-23T11:18:06.985Z,50.10
2022-10-23T11:20:57.535Z,50.80
2022-10-23T11:23:58.599Z,51.00
2022-10-23T11:26:40.798Z,50.60
2022-10-23T11:29:31.803Z,50.80
2022-10-23T11:32:14.685Z,50.30
2022-10-23T11:34:54.786Z,50.60
2022-10-23T11:37:24.564Z,50.10
2022-10-23T11:40:03.054Z,50.30
2022-10-23T11:42:33.574Z,50.70
2022-10-23T11:45:21.047Z,49.00
2022-10-23T11:47:58.629Z,48.80
2022-10-23T11:50:30.543Z,48.40
2022-10-23T11:53:15.822Z,48.80
2022-10-23T11:56:02.452Z,48.20
2022-10-23T11:58:43.405Z,48.80
2022-10-23T12:01:29.319Z,48.50
2022-10-23T12:04:01.543Z,47.60
2022-10-23T12:06:33.128Z,48.10
2022-10-23T12:09:04.741Z,47.90
2022-10-23T12:11:45.150Z,47.70
2022-10-23T12:14:31.457Z,47.50
2022-10-23T12:17:01.547Z,47.30
2022-10-23T12:19:32.009Z,47.70
2022-10-23T12:22:05.412Z,47.30
2022-10-23T12:24:59.950Z,47.40
2022-10-23T12:27:35.062Z,46.80
2022-10-23T12:30:20.013Z,46.80
2022-10-23T12:33:15.394Z,46.10
2022-10-23T12:36:08.564Z,45.60
2022-10-23T12:38:44.398Z,45.40
2022-10-23T12:41:15.308Z,45.70
2022-10-23T12:43:51.554Z,45.50
2022-10-23T12:46:31.578Z,45.40
2022-10-23T12:49:03.862Z,45.90
2022-10-23T12:51:33.860Z,45.50
2022-10-23T12:54:02.416Z,45.70
2022-10-23T12:56:36.496Z,45.30
2022-10-23T12:59:05.946Z,46.10
2022-10-23T13:01:35.480Z,45.30
2022-10-23T13:04:14.571Z,45.80
2022-10-23T13:06:43.015Z,45.90
2022-10-23T13:09:23.123Z,46.50
2022-10-23T13:12:15.957Z,46.60
2022-10-23T13:14:55.837Z,46.70
2022-10-23T13:17:35.333Z,45.90
2022-10-23T13:20:22.631Z,45.30
2022-10-23T13:22:56.400Z,45.70
2022-10-23T13:25:30.054Z,45.40
2022-10-23T13:28:14.982Z,45.80
2022-10-23T13:30:46.203Z,45.30
2022-10-23T13:33:26.149Z,45.30
2022-10-23T13:35:59.624Z,45.30
2022-10-23T13:38:33.310Z,46.20
2022-10-23T13:41:02.996Z,46.90
2022-10-23T13:43:32.832Z,46.40
2022-10-23T13:46:01.788Z,46.90
2022-10-23T13:48:30.783Z,46.10
2022-10-23T13:51:11.505Z,45.60
2022-10-23T13:53:39.932Z,46.20
2022-10-23T13:56:08.664Z,46.80
2022-10-23T13:58:36.659Z,47.10
2022-10-23T14:01:04.852Z,46.90
2022-10-23T14:03:33.200Z,46.90
2022-10-23T14:06:02.768Z,46.90
2022-10-23T14:08:30.801Z,47.00
2022-10-23T14:10:58.943Z,46.50
2022-10-23T14:13:26.987Z,46.20
2022-10-23T14:15:55.620Z,46.00
2022-10-23T14:18:24.359Z,45.90
2022-10-23T14:20:52.910Z,46.20
2022-10-23T14:23:22.361Z,46.40
2022-10-23T14:25:50.383Z,46.20
2022-10-23T14:28:18.442Z,46.20
2022-10-23T14:30:46.498Z,45.90
2022-10-23T14:33:14.977Z,45.70
2022-10-23T14:35:43.497Z,45.90
2022-10-23T14:38:13.593Z,45.90
2022-10-23T14:40:43.382Z,45.80
2022-10-23T14:43:11.435Z,45.70
2022-10-23T14:45:39.946Z,45.50
2022-10-23T14:48:08.010Z,45.30
2022-10-23T14:50:37.202Z,45.30
2022-10-23T14:53:05.305Z,45.10
2022-10-23T14:55:33.402Z,45.00
2022-10-23T14:58:02.795Z,44.80
2022-10-23T15:00:30.971Z,44.90
2022-10-23T15:02:59.035Z,45.80
2022-10-23T15:05:27.115Z,46.10
2022-10-23T15:07:56.962Z,46.10
2022-10-23T15:10:25.024Z,46.00
2022-10-23T15:12:53.077Z,45.90
2022-10-23T15:15:23.811Z,46.40
2022-10-23T15:17:53.887Z,46.80
2022-10-23T15:20:22.862Z,47.20
2022-10-23T15:22:50.923Z,47.50
2022-10-23T15:25:19.110Z,47.80
2022-10-23T15:27:48.291Z,48.00
2022-10-23T15:30:16.831Z,48.30
2022-10-23T15:32:46.311Z,47.80
2022-10-23T15:35:14.366Z,48.30
2022-10-23T15:37:42.611Z,48.30
2022-10-23T15:40:11.779Z,48.40
2022-10-23T15:42:39.855Z,48.80
2022-10-23T15:45:08.973Z,48.40
2022-10-23T15:47:37.047Z,48.90
2022-10-23T15:50:07.653Z,48.90
2022-10-23T15:52:35.733Z,48.60
2022-10-23T15:55:11.578Z,48.70
2022-10-23T15:57:39.925Z,48.60
2022-10-23T16:00:11.052Z,48.80
2022-10-23T16:02:39.252Z,48.70
2022-10-23T16:05:09.367Z,47.70
2022-10-23T16:07:37.465Z,48.40
2022-10-23T16:10:06.544Z,47.60
2022-10-23T16:12:34.596Z,48.20
2022-10-23T16:15:02.637Z,48.50
2022-10-23T16:17:33.741Z,48.00
2022-10-23T16:20:01.731Z,47.90
2022-10-23T16:22:31.080Z,48.40
2022-10-23T16:24:59.106Z,48.80
2022-10-23T16:27:27.131Z,49.20
2022-10-23T16:29:55.354Z,49.70
2022-10-23T16:32:23.373Z,50.70
2022-10-23T16:34:53.966Z,51.20
2022-10-23T16:37:22.198Z,51.50
2022-10-23T16:39:56.325Z,51.20
2022-10-23T16:42:52.298Z,51.10
2022-10-23T16:45:34.396Z,51.20
2022-10-23T16:48:05.347Z,50.30
2022-10-23T16:50:33.383Z,49.60
2022-10-23T16:53:01.392Z,49.70
2022-10-23T16:55:30.759Z,49.30
2022-10-23T16:58:00.545Z,49.60
2022-10-23T17:00:34.801Z,49.80
2022-10-23T17:03:04.524Z,49.90
2022-10-23T17:05:35.146Z,50.30
2022-10-23T17:08:03.326Z,50.50
2022-10-23T17:10:32.681Z,50.70
2022-10-23T17:13:00.707Z,51.40
2022-10-23T17:15:28.786Z,51.80
2022-10-23T17:17:57.927Z,51.60
2022-10-23T17:20:26.031Z,51.10
2022-10-23T17:22:54.485Z,50.10
2022-10-23T17:25:23.494Z,50.10
2022-10-23T17:27:52.894Z,51.40
2022-10-23T17:30:20.921Z,50.60
2022-10-23T17:32:49.265Z,49.70
2022-10-23T17:35:17.229Z,50.20
2022-10-23T17:37:45.185Z,50.50
2022-10-23T17:40:13.778Z,50.70
2022-10-23T17:42:41.942Z,51.10
2022-10-23T17:45:11.978Z,50.50
2022-10-23T17:47:42.904Z,49.50
2022-10-23T17:50:12.395Z,49.10
2022-10-23T17:52:40.383Z,49.30
2022-10-23T17:55:09.404Z,49.20
2022-10-23T17:57:37.367Z,49.40
2022-10-23T18:00:06.734Z,49.80
2022-10-23T18:02:41.656Z,50.80
2022-10-23T18:05:11.146Z,51.80
2022-10-23T18:07:39.142Z,50.40
2022-10-23T18:10:07.768Z,49.70
2022-10-23T18:12:35.780Z,50.20
2022-10-23T18:15:03.873Z,50.40
2022-10-23T18:17:31.832Z,49.40
2022-10-23T18:20:02.128Z,49.40
2022-10-23T18:22:33.074Z,49.50
2022-10-23T18:25:03.514Z,49.90
2022-10-23T18:27:33.783Z,49.50
2022-10-23T18:30:01.862Z,49.90
2022-10-23T18:32:30.033Z,49.60
2022-10-23T18:35:04.770Z,48.40
2022-10-23T18:37:34.720Z,47.90
2022-10-23T18:40:06.584Z,47.50
2022-10-23T18:42:35.051Z,47.70
2022-10-23T18:45:02.989Z,49.10
2022-10-23T18:47:30.943Z,50.60
2022-10-23T18:49:58.907Z,50.10
2022-10-23T18:52:28.302Z,50.10
2022-10-23T18:54:56.265Z,50.20
2022-10-23T18:57:24.229Z,49.90
2022-10-23T18:59:53.171Z,49.60
2022-10-23T19:02:21.288Z,50.70
2022-10-23T19:04:49.428Z,50.30
2022-10-23T19:07:17.397Z,50.30
2022-10-23T19:09:46.774Z,51.10
2022-10-23T19:12:16.216Z,50.90
2022-10-23T19:14:44.427Z,50.50
2022-10-23T19:17:18.227Z,50.40
2022-10-23T19:19:49.291Z,50.50
2022-10-23T19:22:18.924Z,52.10
2022-10-23T19:24:51.366Z,52.30
2022-10-23T19:27:19.781Z,51.70
2022-10-23T19:29:51.151Z,50.90
2022-10-23T19:32:19.403Z,50.40
2022-10-23T19:34:47.306Z,50.40
2022-10-23T19:37:15.881Z,50.80
2022-10-23T19:39:43.807Z,50.90
2022-10-23T19:42:15.445Z,51.00
2022-10-23T19:44:43.608Z,51.00
2022-10-23T19:47:11.509Z,50.90
2022-10-23T19:49:39.512Z,50.80
2022-10-23T19:52:07.840Z,50.90
2022-10-23T19:54:36.097Z,51.40
2022-10-23T19:57:04.079Z,51.10
2022-10-23T19:59:33.329Z,51.20
2022-10-23T20:02:04.048Z,51.50
2022-10-23T20:04:32.195Z,50.70
2022-10-23T20:07:00.108Z,50.80
2022-10-23T20:09:28.325Z,50.00
2022-10-23T20:11:56.584Z,50.10
2022-10-23T20:14:26.667Z,49.70
2022-10-23T20:16:56.251Z,51.10
2022-10-23T20:19:24.677Z,50.80
2022-10-23T20:21:52.863Z,49.80
2022-10-23T20:24:21.987Z,48.80
2022-10-23T20:26:53.066Z,48.10
2022-10-23T20:29:21.758Z,47.60
2022-10-23T20:31:49.923Z,47.20
2022-10-23T20:34:19.980Z,48.00
2022-10-23T20:36:50.136Z,48.80
2022-10-23T20:39:20.125Z,48.10
2022-10-23T20:41:48.930Z,48.60
2022-10-23T20:44:18.472Z,49.50
2022-10-23T20:46:46.541Z,49.10
2022-10-23T20:49:19.369Z,48.30
2022-10-23T20:51:54.838Z,48.60
2022-10-23T20:54:23.970Z,49.40
2022-10-23T20:56:52.038Z,49.60
2022-10-23T20:59:20.504Z,50.10
2022-10-23T21:01:52.879Z,51.10
2022-10-23T21:04:27.551Z,50.70
2022-10-23T21:07:12.874Z,51.10
2022-10-23T21:09:41.824Z,51.60
2022-10-23T21:12:10.755Z,50.30
2022-10-23T21:14:38.895Z,49.60
2022-10-23T21:17:08.449Z,49.30
2022-10-23T21:19:38.990Z,48.50
2022-10-23T21:22:06.952Z,47.70
2022-10-23T21:24:34.990Z,47.30
2022-10-23T21:27:02.940Z,47.00
2022-10-23T21:29:30.836Z,48.00
2022-10-23T21:32:01.349Z,48.70
2022-10-23T21:34:30.385Z,49.60
2022-10-23T21:37:12.395Z,50.20
2022-10-23T21:39:41.771Z,50.40
2022-10-23T21:42:10.063Z,50.90
2022-10-23T21:44:37.992Z,51.20
2022-10-23T21:47:06.180Z,51.30
2022-10-23T21:49:34.129Z,51.10
2022-10-23T21:52:04.301Z,51.30
2022-10-23T21:54:32.262Z,50.90
2022-10-23T21:57:00.419Z,50.00
2022-10-23T21:59:30.298Z,48.90
2022-10-23T22:01:59.931Z,48.30
2022-10-23T22:04:28.997Z,49.00
2022-10-23T22:06:57.234Z,50.10
2022-10-23T22:09:26.492Z,50.50
2022-10-23T22:11:55.489Z,51.20
2022-10-23T22:14:23.810Z,50.70
2022-10-23T22:16:52.093Z,50.70
2022-10-23T22:19:22.240Z,50.30
2022-10-23T22:21:51.078Z,49.10
2022-10-23T22:24:19.432Z,48.70
2022-10-23T22:26:51.198Z,47.90
2022-10-23T22:29:21.681Z,48.10
2022-10-23T22:31:50.377Z,48.10
2022-10-23T22:34:27.285Z,48.50
2022-10-23T22:37:08.834Z,48.50
2022-10-23T22:39:36.768Z,48.50
2022-10-23T22:42:06.287Z,48.10
2022-10-23T22:44:34.219Z,48.10
2022-10-23T22:47:02.184Z,47.50
2022-10-23T22:49:30.310Z,48.40
2022-10-23T22:51:58.247Z,47.60
2022-10-23T22:54:26.195Z,46.70
2022-10-23T22:56:54.118Z,46.80
2022-10-23T22:59:23.447Z,46.40
2022-10-23T23:01:52.461Z,47.20
2022-10-23T23:07:09.543Z,48.70
2022-10-23T23:09:39.331Z,48.90
2022-10-23T23:12:08.392Z,49.10
2022-10-23T23:14:38.200Z,49.20
2022-10-23T23:17:07.184Z,49.20
2022-10-23T23:19:35.563Z,48.30
2022-10-23T23:22:03.953Z,47.70
2022-10-23T23:24:32.067Z,47.50
2022-10-23T23:27:00.006Z,47.50
2022-10-23T23:29:29.464Z,46.70
2022-10-23T23:31:58.971Z,47.20
2022-10-23T23:34:27.014Z,47.50
2022-10-23T23:36:55.011Z,48.10
2022-10-23T23:39:22.979Z,47.90
2022-10-23T23:41:51.016Z,48.50
2022-10-23T23:44:18.930Z,48.20
2022-10-23T23:46:46.927Z,48.90
2022-10-23T23:49:16.268Z,48.50
2022-10-23T23:51:44.208Z,48.90
2022-10-23T23:54:12.122Z,47.90
2022-10-23T23:56:40.223Z,47.70
2022-10-23T23:59:08.173Z,47.20
